createdAt,value
2022-11-27T00:00:56.708Z,157.47
2022-11-27T00:03:23.308Z,158.97
2022-11-27T00:05:57.899Z,154.20
2022-11-27T00:08:24.946Z,147.03
2022-11-27T00:10:51.511Z,160.23
2022-11-27T00:13:18.056Z,157.70
2022-11-27T00:15:44.887Z,130.93
2022-11-27T00:18:12.215Z,142.00
2022-11-27T00:20:38.816Z,130.43
2022-11-27T00:23:05.303Z,128.97
2022-11-27T00:25:32.398Z,158.40
2022-11-27T00:27:58.930Z,127.87
2022-11-27T00:30:25.364Z,122.97
2022-11-27T00:32:51.819Z,142.73
2022-11-27T00:35:18.339Z,144.13
2022-11-27T00:37:44.801Z,141.80
2022-11-27T00:40:11.556Z,114.90
2022-11-27T00:42:38.051Z,144.47
2022-11-27T00:45:04.679Z,115.07
2022-11-27T00:47:31.134Z,132.37
2022-11-27T00:49:57.799Z,134.30
2022-11-27T00:52:24.235Z,106.37
2022-11-27T00:54:50.868Z,115.93
2022-11-27T00:57:17.306Z,119.67
2022-11-27T00:59:43.776Z,108.53
2022-11-27T01:02:10.244Z,100.87
2022-11-27T01:04:36.981Z,103.87
2022-11-27T01:07:03.562Z,101.70
2022-11-27T01:09:30.061Z,95.73
2022-11-27T01:11:56.469Z,98.80
2022-11-27T01:14:22.949Z,113.60
2022-11-27T01:16:49.424Z,93.07
2022-11-27T01:19:16.359Z,101.07
2022-11-27T01:21:43.004Z,93.63
2022-11-27T01:24:11.121Z,130.10
2022-11-27T01:26:37.560Z,99.10
2022-11-27T01:29:04.055Z,98.83
2022-11-27T01:31:32.413Z,94.30
2022-11-27T01:34:01.875Z,87.33
2022-11-27T01:36:29.279Z,72.37
2022-11-27T01:38:55.784Z,85.83
2022-11-27T01:41:36.219Z,68.53
2022-11-27T01:44:24.106Z,102.83
2022-11-27T01:46:53.736Z,79.53
2022-11-27T01:49:34.234Z,70.57
2022-11-27T01:52:03.719Z,64.67
2022-11-27T01:54:38.989Z,72.93
2022-11-27T01:57:13.611Z,59.00
2022-11-27T01:59:40.958Z,72.53
2022-11-27T02:02:07.558Z,80.87
2022-11-27T02:04:34.127Z,64.67
2022-11-27T02:07:00.812Z,67.20
2022-11-27T02:09:28.346Z,63.90
2022-11-27T02:12:11.199Z,74.17
2022-11-27T02:14:50.402Z,58.83
2022-11-27T02:17:20.956Z,67.47
2022-11-27T02:20:06.202Z,63.57
2022-11-27T02:22:38.630Z,62.33
2022-11-27T02:25:11.136Z,67.03
2022-11-27T02:28:39.445Z,79.80
2022-11-27T02:31:10.984Z,58.97
2022-11-27T02:33:41.797Z,70.83
2022-11-27T02:36:19.524Z,68.87
2022-11-27T02:38:56.204Z,56.63
2022-11-27T02:41:27.648Z,69.33
2022-11-27T02:43:54.776Z,69.93
2022-11-27T02:46:21.614Z,62.00
2022-11-27T02:48:54.794Z,70.77
2022-11-27T02:51:25.736Z,72.93
2022-11-27T02:53:55.103Z,57.07
2022-11-27T02:56:24.651Z,59.07
2022-11-27T02:58:51.827Z,56.23
2022-11-27T03:01:19.166Z,63.57
2022-11-27T03:03:48.090Z,69.37
2022-11-27T03:06:19.371Z,57.23
2022-11-27T03:08:51.303Z,55.23
2022-11-27T03:11:17.875Z,59.33
2022-11-27T03:13:48.659Z,58.03
2022-11-27T03:16:34.852Z,56.70
2022-11-27T03:19:19.409Z,61.73
2022-11-27T03:21:50.556Z,69.17
2022-11-27T03:24:17.457Z,58.73
2022-11-27T03:26:44.013Z,57.70
2022-11-27T03:29:49.820Z,60.17
2022-11-27T03:32:16.745Z,71.40
2022-11-27T03:34:43.478Z,58.57
2022-11-27T03:37:10.162Z,52.47
2022-11-27T03:39:36.883Z,53.67
2022-11-27T03:42:41.939Z,64.07
2022-11-27T03:45:22.203Z,62.90
2022-11-27T03:48:18.381Z,58.73
2022-11-27T03:51:00.139Z,57.47
2022-11-27T03:53:57.785Z,54.03
2022-11-27T03:56:38.451Z,56.63
2022-11-27T03:59:09.984Z,63.87
2022-11-27T04:01:36.682Z,62.43
2022-11-27T04:04:03.434Z,61.43
2022-11-27T04:06:29.922Z,50.73
2022-11-27T04:08:56.355Z,55.43
2022-11-27T04:11:22.804Z,67.77
2022-11-27T04:13:49.255Z,54.97
2022-11-27T04:16:15.842Z,77.17
2022-11-27T04:18:42.307Z,61.67
2022-11-27T04:21:08.792Z,59.10
2022-11-27T04:23:35.267Z,50.40
2022-11-27T04:26:02.030Z,45.27
2022-11-27T04:28:28.571Z,56.80
2022-11-27T04:30:55.047Z,47.17
2022-11-27T04:33:21.925Z,47.50
2022-11-27T04:35:48.996Z,45.17
2022-11-27T04:38:15.444Z,44.87
2022-11-27T04:40:41.908Z,40.20
2022-11-27T04:43:08.364Z,47.00
2022-11-27T04:45:34.871Z,54.70
2022-11-27T04:48:01.334Z,45.43
2022-11-27T04:50:27.848Z,47.97
2022-11-27T04:52:54.333Z,46.83
2022-11-27T04:55:20.801Z,45.70
2022-11-27T04:57:47.266Z,44.80
2022-11-27T05:00:14.122Z,43.00
2022-11-27T05:02:40.734Z,47.03
2022-11-27T05:05:07.608Z,36.83
2022-11-27T05:07:34.187Z,46.27
2022-11-27T05:10:00.694Z,45.83
2022-11-27T05:12:27.163Z,46.60
2022-11-27T05:14:53.588Z,44.13
2022-11-27T05:17:20.047Z,47.33
2022-11-27T05:19:46.478Z,50.87
2022-11-27T05:22:12.938Z,48.57
2022-11-27T05:24:39.604Z,46.17
2022-11-27T05:27:06.243Z,54.20
2022-11-27T05:29:32.712Z,48.40
2022-11-27T05:31:59.170Z,49.07
2022-11-27T05:34:25.610Z,40.53
2022-11-27T05:36:52.077Z,48.20
2022-11-27T05:39:18.552Z,43.67
2022-11-27T05:41:45.067Z,46.67
2022-11-27T05:44:15.436Z,39.13
2022-11-27T05:46:45.822Z,49.97
2022-11-27T05:49:14.358Z,69.00
2022-11-27T05:51:44.129Z,40.73
2022-11-27T05:54:12.912Z,41.40
2022-11-27T05:56:39.399Z,40.20
2022-11-27T05:59:05.913Z,45.63
2022-11-27T06:01:32.478Z,33.33
2022-11-27T06:03:58.939Z,40.20
2022-11-27T06:06:25.420Z,52.37
2022-11-27T06:08:51.881Z,47.07
2022-11-27T06:11:20.972Z,48.00
2022-11-27T06:13:48.537Z,56.83
2022-11-27T06:16:22.535Z,49.47
2022-11-27T06:18:51.239Z,57.83
2022-11-27T06:21:17.821Z,53.80
2022-11-27T06:23:44.648Z,59.03
2022-11-27T06:26:19.983Z,61.50
2022-11-27T06:28:47.258Z,68.00
2022-11-27T06:31:18.308Z,63.27
2022-11-27T06:33:46.287Z,86.53
2022-11-27T06:36:12.727Z,82.07
2022-11-27T06:38:39.298Z,90.90
2022-11-27T06:41:11.542Z,84.83
2022-11-27T06:43:38.577Z,73.27
2022-11-27T06:46:06.935Z,77.23
2022-11-27T06:48:34.296Z,81.50
2022-11-27T06:51:02.172Z,71.30
2022-11-27T06:53:29.753Z,69.17
2022-11-27T06:55:56.760Z,64.70
2022-11-27T06:58:29.345Z,93.70
2022-11-27T07:00:59.020Z,75.10
2022-11-27T07:03:25.963Z,82.47
2022-11-27T07:05:52.577Z,69.93
2022-11-27T07:08:19.075Z,76.50
2022-11-27T07:10:45.592Z,89.23
2022-11-27T07:13:12.058Z,60.50
2022-11-27T07:15:38.486Z,71.37
2022-11-27T07:18:04.992Z,62.63
2022-11-27T07:20:32.247Z,71.97
2022-11-27T07:22:58.730Z,68.00
2022-11-27T07:25:25.192Z,74.53
2022-11-27T07:27:51.661Z,59.50
2022-11-27T07:30:18.273Z,64.47
2022-11-27T07:32:44.736Z,75.67
2022-11-27T07:35:11.315Z,74.17
2022-11-27T07:37:37.831Z,77.70
2022-11-27T07:40:05.147Z,91.30
2022-11-27T07:42:39.439Z,57.90
2022-11-27T07:45:08.268Z,92.27
2022-11-27T07:47:34.754Z,77.53
2022-11-27T07:50:01.335Z,62.93
2022-11-27T07:52:27.880Z,76.37
2022-11-27T07:54:54.455Z,72.23
2022-11-27T07:57:21.049Z,94.17
2022-11-27T07:59:47.898Z,85.53
2022-11-27T08:02:14.876Z,64.57
2022-11-27T08:04:41.625Z,86.13
2022-11-27T08:07:08.421Z,76.17
2022-11-27T08:09:34.895Z,71.00
2022-11-27T08:12:01.374Z,90.23
2022-11-27T08:14:27.885Z,57.77
2022-11-27T08:16:54.421Z,67.70
2022-11-27T08:19:21.023Z,69.73
2022-11-27T08:21:47.496Z,76.53
2022-11-27T08:24:13.974Z,62.07
2022-11-27T08:26:40.476Z,72.33
2022-11-27T08:29:07.278Z,89.80
2022-11-27T08:31:34.057Z,68.07
2022-11-27T08:34:00.643Z,68.37
2022-11-27T08:36:27.279Z,66.77
2022-11-27T08:38:55.112Z,67.17
2022-11-27T08:41:22.002Z,71.10
2022-11-27T08:43:48.458Z,64.60
2022-11-27T08:46:15.049Z,69.67
2022-11-27T08:48:42.077Z,72.90
2022-11-27T08:51:10.999Z,100.60
2022-11-27T08:53:38.076Z,86.27
2022-11-27T08:56:14.199Z,75.07
2022-11-27T08:58:41.210Z,60.43
2022-11-27T09:01:12.673Z,59.20
2022-11-27T09:03:39.419Z,62.90
2022-11-27T09:06:07.728Z,70.37
2022-11-27T09:08:34.185Z,79.83
2022-11-27T09:11:01.484Z,105.83
2022-11-27T09:13:27.951Z,55.70
2022-11-27T09:15:56.576Z,67.07
2022-11-27T09:18:23.426Z,54.73
2022-11-27T09:20:58.095Z,54.80
2022-11-27T09:23:24.670Z,54.20
2022-11-27T09:25:51.196Z,51.57
2022-11-27T09:28:17.704Z,49.83
2022-11-27T09:30:44.320Z,47.50
2022-11-27T09:33:10.868Z,45.40
2022-11-27T09:35:38.266Z,46.80
2022-11-27T09:38:04.806Z,40.07
2022-11-27T09:40:31.360Z,45.27
2022-11-27T09:43:02.946Z,39.53
2022-11-27T09:45:29.693Z,48.10
2022-11-27T09:47:59.303Z,37.47
2022-11-27T09:50:29.006Z,34.80
2022-11-27T09:53:00.114Z,33.80
2022-11-27T09:55:34.133Z,36.97
2022-11-27T09:58:26.898Z,32.63
2022-11-27T10:00:53.409Z,32.93
2022-11-27T10:03:27.418Z,30.57
2022-11-27T10:06:15.817Z,31.00
2022-11-27T10:08:55.402Z,28.03
2022-11-27T10:11:40.351Z,37.13
2022-11-27T10:14:34.064Z,33.40
2022-11-27T10:17:06.500Z,31.60
2022-11-27T10:19:42.782Z,29.33
2022-11-27T10:22:29.763Z,28.43
2022-11-27T10:25:02.307Z,32.37
2022-11-27T10:27:38.644Z,28.57
2022-11-27T10:30:17.266Z,26.43
2022-11-27T10:32:55.049Z,25.73
2022-11-27T10:35:24.478Z,26.33
2022-11-27T10:38:06.518Z,23.23
2022-11-27T10:40:46.248Z,22.60
2022-11-27T10:43:20.280Z,23.57
2022-11-27T10:46:08.057Z,25.10
2022-11-27T10:48:34.625Z,30.17
2022-11-27T10:51:01.296Z,29.30
2022-11-27T10:53:32.264Z,36.10
2022-11-27T10:56:05.523Z,36.13
2022-11-27T10:58:41.974Z,30.43
2022-11-27T11:01:09.757Z,25.03
2022-11-27T11:03:36.887Z,24.93
2022-11-27T11:06:23.213Z,18.90
2022-11-27T11:09:13.161Z,15.80
2022-11-27T11:11:39.861Z,18.33
2022-11-27T11:14:16.936Z,16.90
2022-11-27T11:16:45.072Z,17.63
2022-11-27T11:19:22.434Z,18.27
2022-11-27T11:21:49.140Z,15.93
2022-11-27T11:24:24.979Z,19.93
2022-11-27T11:26:59.267Z,17.43
2022-11-27T11:29:40.233Z,14.67
2022-11-27T11:32:20.470Z,17.10
2022-11-27T11:35:10.518Z,18.80
2022-11-27T11:37:44.988Z,18.13
2022-11-27T11:40:16.548Z,17.50
2022-11-27T11:42:58.593Z,16.80
2022-11-27T11:45:31.256Z,16.93
2022-11-27T11:48:02.541Z,16.60
2022-11-27T11:50:45.381Z,19.13
2022-11-27T11:53:34.110Z,16.93
2022-11-27T11:56:22.784Z,17.97
2022-11-27T11:59:02.947Z,16.57
2022-11-27T12:01:36.598Z,22.57
2022-11-27T12:04:21.445Z,19.97
2022-11-27T12:07:09.503Z,16.73
2022-11-27T12:09:42.064Z,15.27
2022-11-27T12:12:20.972Z,18.77
2022-11-27T12:14:50.677Z,14.93
2022-11-27T12:17:41.454Z,16.17
2022-11-27T12:20:14.753Z,13.50
2022-11-27T12:23:06.036Z,18.27
2022-11-27T12:26:11.599Z,17.83
2022-11-27T12:29:03.878Z,17.93
2022-11-27T12:31:39.530Z,16.37
2022-11-27T12:34:24.127Z,16.00
2022-11-27T12:37:14.364Z,16.93
2022-11-27T12:39:49.779Z,14.50
2022-11-27T12:42:24.172Z,14.47
2022-11-27T12:44:57.186Z,13.53
2022-11-27T12:47:40.208Z,16.67
2022-11-27T12:50:30.408Z,14.33
2022-11-27T12:53:11.574Z,14.10
2022-11-27T12:55:39.563Z,16.37
2022-11-27T12:58:10.750Z,14.83
2022-11-27T13:00:41.263Z,16.17
2022-11-27T13:03:18.634Z,14.00
2022-11-27T13:06:03.577Z,22.00
2022-11-27T13:08:48.339Z,15.63
2022-11-27T13:11:19.471Z,16.40
2022-11-27T13:13:49.119Z,18.27
2022-11-27T13:16:25.412Z,17.80
2022-11-27T13:18:55.253Z,13.60
2022-11-27T13:21:28.316Z,13.40
2022-11-27T13:23:54.993Z,13.67
2022-11-27T13:26:26.653Z,16.60
2022-11-27T13:28:56.390Z,18.30
2022-11-27T13:31:28.607Z,15.27
2022-11-27T13:34:00.856Z,16.20
2022-11-27T13:36:46.225Z,13.10
2022-11-27T13:39:24.646Z,16.57
2022-11-27T13:42:00.725Z,13.20
2022-11-27T13:44:29.028Z,17.67
2022-11-27T13:46:58.755Z,15.93
2022-11-27T13:49:28.547Z,15.83
2022-11-27T13:52:27.954Z,31.20
2022-11-27T13:54:59.250Z,21.77
2022-11-27T13:57:27.406Z,36.50
2022-11-27T14:00:05.201Z,23.53
2022-11-27T14:02:48.536Z,23.43
2022-11-27T14:05:18.146Z,18.70
2022-11-27T14:07:49.887Z,18.07
2022-11-27T14:10:18.144Z,16.43
2022-11-27T14:12:53.529Z,16.73
2022-11-27T14:15:25.632Z,15.37
2022-11-27T14:17:55.227Z,13.97
2022-11-27T14:20:28.217Z,18.53
2022-11-27T14:23:13.490Z,14.50
2022-11-27T14:25:40.916Z,13.83
2022-11-27T14:28:21.384Z,16.73
2022-11-27T14:30:50.440Z,14.87
2022-11-27T14:33:28.249Z,14.47
2022-11-27T14:35:57.034Z,13.63
2022-11-27T14:38:24.856Z,15.63
2022-11-27T14:40:55.818Z,18.23
2022-11-27T14:43:26.006Z,14.37
2022-11-27T14:45:55.474Z,14.87
2022-11-27T14:48:24.302Z,24.17
2022-11-27T14:50:51.471Z,31.03
2022-11-27T14:53:19.980Z,29.80
2022-11-27T14:55:49.302Z,43.87
2022-11-27T14:58:22.693Z,58.67
2022-11-27T15:00:59.423Z,52.90
2022-11-27T15:03:26.377Z,53.10
2022-11-27T15:05:54.914Z,84.90
2022-11-27T15:08:21.567Z,24.03
2022-11-27T15:10:48.114Z,18.57
2022-11-27T15:13:22.852Z,15.57
2022-11-27T15:16:02.580Z,15.47
2022-11-27T15:18:29.826Z,36.77
2022-11-27T15:20:57.517Z,25.53
2022-11-27T15:23:27.920Z,38.80
2022-11-27T15:26:00.728Z,31.47
2022-11-27T15:28:34.033Z,19.00
2022-11-27T15:31:01.113Z,20.53
2022-11-27T15:33:32.936Z,17.93
2022-11-27T15:36:41.986Z,16.73
2022-11-27T15:39:21.639Z,17.30
2022-11-27T15:41:54.187Z,14.73
2022-11-27T15:44:20.975Z,15.07
2022-11-27T15:46:47.586Z,15.70
2022-11-27T15:49:15.224Z,15.77
2022-11-27T15:51:42.319Z,16.47
2022-11-27T15:54:08.905Z,23.50
2022-11-27T15:56:35.419Z,20.47
2022-11-27T15:59:01.878Z,15.33
2022-11-27T16:01:28.368Z,16.47
2022-11-27T16:03:55.795Z,19.87
2022-11-27T16:06:24.644Z,18.03
2022-11-27T16:08:58.911Z,17.70
2022-11-27T16:11:26.651Z,19.83
2022-11-27T16:13:53.105Z,16.77
2022-11-27T16:16:20.138Z,18.83
2022-11-27T16:18:46.756Z,19.27
2022-11-27T16:21:15.403Z,21.83
2022-11-27T16:23:42.141Z,25.97
2022-11-27T16:26:11.592Z,24.00
2022-11-27T16:28:38.055Z,20.17
2022-11-27T16:31:08.637Z,19.97
2022-11-27T16:33:35.124Z,16.13
2022-11-27T16:36:09.988Z,18.20
2022-11-27T16:38:36.694Z,17.67
2022-11-27T16:41:05.736Z,16.83
2022-11-27T16:43:35.284Z,21.93
2022-11-27T16:46:07.355Z,18.97
2022-11-27T16:48:35.531Z,22.57
2022-11-27T16:51:04.718Z,19.63
2022-11-27T16:53:31.327Z,19.60
2022-11-27T16:55:57.791Z,17.30
2022-11-27T16:58:24.615Z,17.93
2022-11-27T17:00:51.208Z,18.13
2022-11-27T17:03:17.855Z,17.40
2022-11-27T17:05:48.757Z,21.07
2022-11-27T17:08:17.835Z,21.60
2022-11-27T17:10:45.950Z,17.23
2022-11-27T17:13:12.543Z,17.17
2022-11-27T17:15:40.753Z,20.03
2022-11-27T17:18:07.417Z,18.70
2022-11-27T17:20:33.857Z,26.80
2022-11-27T17:23:00.503Z,33.60
2022-11-27T17:25:27.036Z,17.43
2022-11-27T17:27:53.511Z,19.87
2022-11-27T17:30:19.969Z,51.93
2022-11-27T17:32:46.393Z,40.13
2022-11-27T17:35:13.054Z,17.10
2022-11-27T17:37:39.503Z,16.43
2022-11-27T17:40:06.756Z,19.47
2022-11-27T17:42:33.207Z,18.30
2022-11-27T17:44:59.663Z,32.50
2022-11-27T17:47:26.316Z,18.33
2022-11-27T17:49:52.763Z,19.83
2022-11-27T17:52:19.262Z,14.30
2022-11-27T17:54:45.705Z,16.83
2022-11-27T17:57:12.177Z,14.63
2022-11-27T17:59:38.841Z,18.00
2022-11-27T18:02:05.534Z,19.73
2022-11-27T18:04:32.386Z,16.00
2022-11-27T18:06:58.962Z,19.23
2022-11-27T18:09:25.459Z,17.57
2022-11-27T18:11:52.277Z,16.43
2022-11-27T18:14:18.761Z,15.63
2022-11-27T18:16:45.677Z,13.90
2022-11-27T18:19:12.309Z,16.83
2022-11-27T18:21:39.407Z,16.93
2022-11-27T18:24:23.553Z,13.87
2022-11-27T18:29:39.222Z,14.87
2022-11-27T18:32:06.326Z,25.90
2022-11-27T18:34:32.961Z,19.27
2022-11-27T18:37:03.635Z,25.00
2022-11-27T18:39:31.708Z,21.13
2022-11-27T18:41:58.855Z,19.60
2022-11-27T18:44:25.586Z,17.20
2022-11-27T18:46:52.184Z,19.03
2022-11-27T18:49:19.048Z,20.90
2022-11-27T18:51:45.604Z,16.80
2022-11-27T18:54:12.208Z,15.07
2022-11-27T18:56:38.861Z,14.03
2022-11-27T18:59:07.043Z,14.37
2022-11-27T19:01:41.600Z,14.47
2022-11-27T19:04:09.627Z,17.80
2022-11-27T19:06:37.573Z,17.50
2022-11-27T19:09:04.902Z,14.17
2022-11-27T19:11:32.837Z,15.67
2022-11-27T19:13:59.694Z,16.77
2022-11-27T19:16:38.616Z,17.50
2022-11-27T19:19:06.384Z,17.10
2022-11-27T19:21:34.050Z,20.50
2022-11-27T19:24:02.609Z,15.60
2022-11-27T19:26:32.031Z,17.80
2022-11-27T19:29:00.910Z,18.30
2022-11-27T19:31:27.749Z,16.57
2022-11-27T19:33:55.755Z,16.33
2022-11-27T19:36:23.223Z,19.13
2022-11-27T19:38:54.741Z,17.87
2022-11-27T19:41:21.589Z,18.17
2022-11-27T19:43:48.277Z,18.80
2022-11-27T19:46:15.084Z,17.83
2022-11-27T19:48:42.045Z,18.10
2022-11-27T19:51:10.138Z,16.33
2022-11-27T19:53:37.787Z,18.57
2022-11-27T19:56:05.594Z,18.43
2022-11-27T19:58:32.498Z,23.77
2022-11-27T20:01:10.660Z,19.27
2022-11-27T20:03:37.592Z,18.23
2022-11-27T20:06:06.695Z,17.53
2022-11-27T20:08:33.524Z,20.07
2022-11-27T20:11:00.957Z,18.57
2022-11-27T20:13:27.869Z,18.53
2022-11-27T20:15:55.538Z,15.80
2022-11-27T20:18:22.501Z,16.10
2022-11-27T20:20:49.208Z,16.77
2022-11-27T20:23:15.839Z,19.30
2022-11-27T20:25:42.758Z,17.90
2022-11-27T20:28:10.080Z,15.17
2022-11-27T20:30:38.884Z,15.43
2022-11-27T20:33:07.675Z,19.73
2022-11-27T20:35:34.685Z,29.23
2022-11-27T20:38:01.397Z,21.23
2022-11-27T20:40:28.520Z,16.53
2022-11-27T20:42:55.333Z,18.03
2022-11-27T20:45:21.979Z,14.97
2022-11-27T20:47:48.827Z,16.90
2022-11-27T20:50:15.466Z,17.27
2022-11-27T20:52:42.241Z,16.60
2022-11-27T20:55:09.223Z,29.97
2022-11-27T20:57:35.984Z,20.77
2022-11-27T21:00:02.681Z,20.03
2022-11-27T21:02:29.514Z,17.40
2022-11-27T21:04:56.284Z,17.37
2022-11-27T21:07:23.146Z,15.20
2022-11-27T21:09:49.906Z,16.30
2022-11-27T21:12:16.938Z,20.37
2022-11-27T21:14:44.485Z,23.07
2022-11-27T21:17:11.130Z,16.90
2022-11-27T21:19:37.875Z,14.03
2022-11-27T21:22:04.574Z,13.80
2022-11-27T21:24:31.383Z,19.47
2022-11-27T21:26:58.043Z,14.73
2022-11-27T21:29:27.887Z,18.13
2022-11-27T21:31:55.516Z,15.93
2022-11-27T21:34:22.883Z,17.33
2022-11-27T21:36:49.618Z,13.60
2022-11-27T21:39:20.521Z,18.10
2022-11-27T21:41:48.975Z,12.53
2022-11-27T21:44:17.766Z,13.20
2022-11-27T21:46:48.469Z,15.97
2022-11-27T21:49:16.492Z,15.70
2022-11-27T21:51:43.186Z,13.73
2022-11-27T21:54:12.774Z,20.17
2022-11-27T21:56:40.934Z,15.07
2022-11-27T21:59:09.564Z,18.47
2022-11-27T22:01:36.911Z,16.20
2022-11-27T22:04:03.675Z,14.87
2022-11-27T22:06:35.461Z,15.10
2022-11-27T22:09:02.299Z,18.13
2022-11-27T22:11:32.730Z,16.60
2022-11-27T22:14:02.371Z,15.63
2022-11-27T22:16:31.472Z,15.37
2022-11-27T22:18:59.180Z,13.90
2022-11-27T22:21:27.497Z,17.20
2022-11-27T22:23:54.418Z,17.10
2022-11-27T22:26:22.620Z,14.73
2022-11-27T22:28:50.238Z,16.73
2022-11-27T22:31:22.558Z,14.67
2022-11-27T22:33:49.588Z,18.00
2022-11-27T22:36:26.960Z,14.63
2022-11-27T22:38:54.891Z,14.57
2022-11-27T22:41:23.792Z,17.73
2022-11-27T22:43:50.862Z,15.13
2022-11-27T22:46:27.212Z,14.10
2022-11-27T22:49:00.552Z,13.57
2022-11-27T22:51:29.310Z,14.17
2022-11-27T22:53:56.493Z,13.20
2022-11-27T22:56:23.489Z,15.07
2022-11-27T22:58:58.225Z,17.57
2022-11-27T23:01:32.954Z,15.50
2022-11-27T23:04:01.279Z,16.27
2022-11-27T23:06:28.404Z,14.20
2022-11-27T23:08:55.297Z,13.47
2022-11-27T23:11:27.275Z,15.97
2022-11-27T23:13:56.303Z,15.87
2022-11-27T23:16:23.122Z,12.80
2022-11-27T23:18:50.986Z,13.57
2022-11-27T23:21:19.906Z,16.70
2022-11-27T23:23:47.185Z,14.47
2022-11-27T23:26:18.309Z,17.70
2022-11-27T23:28:45.544Z,14.70
2022-11-27T23:31:33.176Z,14.90
2022-11-27T23:34:02.086Z,14.33
2022-11-27T23:36:30.031Z,13.60
2022-11-27T23:38:56.631Z,16.03
2022-11-27T23:41:24.791Z,15.60
2022-11-27T23:43:52.504Z,13.37
2022-11-27T23:46:20.481Z,11.93
2022-11-27T23:48:47.380Z,13.60
2022-11-27T23:51:18.876Z,15.97
2022-11-27T23:53:46.533Z,13.30
2022-11-27T23:56:15.617Z,12.43
2022-11-27T23:58:46.734Z,16.07
